Time;durP1;ratioP1;P1;durP2;ratioP2;P2;SDS_P1;SDS_P2;PMS_P1;PMS_P2;Temp;Humidity;BMP_temperature;BMP_pressure;BME280_temperature;BME280_humidity;BME280_pressure;Samples;Min_cycle;Max_cycle;Signal;HPM_P1;HPM_P2
2022/04/17 00:01:50;;;;;;;6.40;3.87;;;;;;;6.02;64.94;97450.66;5076309;28;20566;-65
2022/04/17 00:04:17;;;;;;;6.63;3.90;;;;;;;5.70;65.38;97452.28;5076061;28;20204;-65
2022/04/17 00:06:43;;;;;;;6.87;3.80;;;;;;;5.60;66.32;97459.16;5076317;28;21042;-64
2022/04/17 00:09:10;;;;;;;8.97;3.80;;;;;;;5.69;66.35;97450.63;5076650;28;20223;-66
2022/04/17 00:11:37;;;;;;;6.83;3.20;;;;;;;5.79;65.85;97454.22;5076796;28;20291;-66
2022/04/17 00:14:03;;;;;;;5.80;3.10;;;;;;;5.84;65.84;97446.84;5075543;28;20672;-66
2022/04/17 00:16:30;;;;;;;7.90;3.97;;;;;;;5.79;65.67;97447.22;5076954;28;20196;-65
2022/04/17 00:18:57;;;;;;;7.73;3.57;;;;;;;5.94;66.49;97445.19;5076394;28;20219;-67
2022/04/17 00:21:24;;;;;;;6.00;3.33;;;;;;;5.80;66.05;97437.59;5076176;28;20210;-66
2022/04/17 00:23:50;;;;;;;10.27;4.40;;;;;;;5.90;65.39;97444.59;5076270;28;20207;-66
2022/04/17 00:26:17;;;;;;;5.27;3.27;;;;;;;5.78;65.69;97437.72;5079351;28;20231;-65
2022/04/17 00:28:43;;;;;;;5.23;2.77;;;;;;;5.68;65.99;97443.75;5080506;28;20219;-66
2022/04/17 00:31:10;;;;;;;8.63;3.47;;;;;;;5.68;65.75;97434.09;5080478;28;20200;-66
2022/04/17 00:33:36;;;;;;;6.53;3.23;;;;;;;5.74;65.68;97432.78;5079364;28;20286;-66
2022/04/17 00:36:05;;;;;;;5.93;3.47;;;;;;;5.77;65.85;97432.59;5079826;28;20207;-66
2022/04/17 00:38:31;;;;;;;8.77;3.33;;;;;;;5.67;66.21;97429.81;5081250;28;20220;-65
2022/04/17 00:40:58;;;;;;;8.00;3.67;;;;;;;5.58;66.31;97434.94;5080308;28;20235;-66
2022/04/17 00:43:26;;;;;;;6.50;3.43;;;;;;;5.69;65.87;97430.56;5078982;28;20211;-66
2022/04/17 00:45:52;;;;;;;8.37;4.00;;;;;;;5.45;66.74;97437.66;5080171;28;20208;-66
2022/04/17 00:48:19;;;;;;;9.90;4.93;;;;;;;5.40;66.94;97423.28;5080152;28;20228;-65
2022/04/17 00:50:46;;;;;;;6.13;3.23;;;;;;;5.61;66.84;97427.69;5079462;28;20202;-65
2022/04/17 00:53:14;;;;;;;6.70;3.70;;;;;;;5.73;66.34;97431.16;5079554;28;20207;-66
2022/04/17 00:55:41;;;;;;;9.10;4.57;;;;;;;5.44;65.81;97428.13;5079951;28;20287;-65
2022/04/17 00:58:09;;;;;;;8.70;3.97;;;;;;;5.35;66.51;97435.88;5079336;28;20224;-65
2022/04/17 01:00:35;;;;;;;13.77;4.03;;;;;;;5.20;66.66;97431.78;5080139;28;20207;-66
2022/04/17 01:03:02;;;;;;;6.00;3.23;;;;;;;5.08;67.50;97418.84;5079051;28;20204;-67
2022/04/17 01:05:28;;;;;;;6.67;3.97;;;;;;;5.12;67.56;97408.03;5079806;28;20675;-64
2022/04/17 01:07:55;;;;;;;7.37;3.93;;;;;;;5.02;66.72;97411.44;5079870;28;20228;-66
2022/04/17 01:10:24;;;;;;;6.33;3.53;;;;;;;5.31;67.19;97413.53;5079866;28;20208;-65
2022/04/17 01:12:53;;;;;;;12.27;3.80;;;;;;;5.15;67.18;97412.19;5079379;28;20265;-65
2022/04/17 01:15:20;;;;;;;6.07;3.23;;;;;;;5.14;67.08;97408.75;5079653;28;20202;-67
2022/04/17 01:17:47;;;;;;;5.33;3.40;;;;;;;5.08;67.05;97401.38;5079744;28;20290;-66
2022/04/17 01:20:13;;;;;;;5.53;3.60;;;;;;;4.98;67.02;97395.16;5079572;28;20694;-65
2022/04/17 01:22:47;;;;;;;8.07;3.33;;;;;;;5.35;66.68;97399.28;5078991;28;20214;-67
2022/04/17 01:27:58;;;;;;;7.77;4.20;;;;;;;4.90;67.43;97400.13;5078507;28;20242;-66
2022/04/17 01:30:24;;;;;;;10.57;4.00;;;;;;;5.01;68.23;97394.09;5079278;28;20661;-66
2022/04/17 01:32:51;;;;;;;7.73;4.17;;;;;;;5.00;68.06;97393.28;5079309;28;20741;-67
2022/04/17 01:35:17;;;;;;;7.87;4.10;;;;;;;4.93;67.79;97397.28;5078547;28;20683;-65
2022/04/17 01:37:48;;;;;;;8.20;3.80;;;;;;;5.12;67.77;97396.75;5078669;28;20219;-64
2022/04/17 01:40:14;;;;;;;6.87;3.73;;;;;;;4.72;68.32;97397.22;5079462;28;20202;-66
2022/04/17 01:42:41;;;;;;;11.47;4.23;;;;;;;4.70;68.30;97399.09;5078501;28;20211;-66
2022/04/17 01:45:09;;;;;;;9.20;3.90;;;;;;;4.91;68.03;97393.97;5078635;28;20227;-65
2022/04/17 01:47:35;;;;;;;9.27;4.87;;;;;;;4.56;68.85;97400.13;5079477;28;20235;-66
2022/04/17 01:50:02;;;;;;;8.60;3.43;;;;;;;4.47;68.96;97387.75;5079648;28;20199;-65
2022/04/17 01:52:28;;;;;;;6.17;3.60;;;;;;;4.50;69.84;97397.16;5078092;28;20199;-66
2022/04/17 01:54:56;;;;;;;8.20;3.83;;;;;;;4.55;69.04;97384.59;5078615;28;20211;-65
2022/04/17 01:57:23;;;;;;;7.70;3.87;;;;;;;4.38;69.12;97382.41;5079341;28;20220;-65
2022/04/17 01:59:49;;;;;;;6.50;3.83;;;;;;;4.32;68.36;97382.84;5078692;28;20573;-66
2022/04/17 02:02:15;;;;;;;11.10;4.53;;;;;;;4.33;68.93;97377.50;5078207;28;20227;-66
2022/04/17 02:04:42;;;;;;;6.60;3.47;;;;;;;4.29;69.84;97372.63;5078678;28;20710;-65
2022/04/17 02:07:08;;;;;;;7.63;3.30;;;;;;;4.29;69.76;97372.63;5078475;28;20604;-66
2022/04/17 02:09:35;;;;;;;8.10;4.03;;;;;;;3.98;70.44;97374.94;5078230;28;20202;-66
2022/04/17 02:12:03;;;;;;;6.20;3.53;;;;;;;4.29;69.36;97362.19;5078828;28;20200;-66
2022/04/17 02:14:29;;;;;;;8.80;3.57;;;;;;;4.15;70.18;97366.72;5078046;28;20206;-66
2022/04/17 02:16:57;;;;;;;7.37;3.67;;;;;;;3.95;71.89;97362.94;5078335;28;20196;-64
2022/04/17 02:19:23;;;;;;;6.87;3.67;;;;;;;3.99;72.46;97359.19;5078704;28;20203;-66
2022/04/17 02:21:50;;;;;;;7.20;3.60;;;;;;;4.14;71.48;97363.31;5078536;28;20229;-66
2022/04/17 02:24:16;;;;;;;8.60;3.60;;;;;;;4.20;71.39;97357.66;5077504;28;20484;-66
2022/04/17 02:26:43;;;;;;;8.47;3.60;;;;;;;4.22;71.26;97360.97;5075135;28;20234;-65
2022/04/17 02:29:10;;;;;;;7.00;4.13;;;;;;;4.40;71.41;97352.63;5077777;28;20214;-66
2022/04/17 02:31:37;;;;;;;8.33;4.30;;;;;;;4.21;71.00;97343.63;5078092;28;20206;-64
2022/04/17 02:34:03;;;;;;;8.67;4.27;;;;;;;4.32;71.24;97335.88;5077363;28;20203;-64
2022/04/17 02:36:30;;;;;;;10.63;4.40;;;;;;;4.34;70.87;97339.19;5078091;28;20204;-64
2022/04/17 02:38:56;;;;;;;7.50;4.10;;;;;;;4.27;69.75;97332.75;5077903;28;20227;-66
2022/04/17 02:41:23;;;;;;;7.53;3.87;;;;;;;4.23;70.51;97336.53;5077818;28;20671;-65
2022/04/17 02:43:50;;;;;;;7.13;3.90;;;;;;;4.14;71.16;97341.59;5077009;28;20619;-65
2022/04/17 02:47:42;;;;;;;8.47;3.93;;;;;;;4.19;71.29;97340.31;5078039;28;20211;-67
2022/04/17 02:49:03;;;;;;;6.87;3.77;;;;;;;3.99;71.82;97343.53;5076781;28;20241;-66
2022/04/17 02:51:30;;;;;;;10.73;4.73;;;;;;;3.94;71.30;97350.84;5077483;28;20722;-67
2022/04/17 02:53:56;;;;;;;9.33;4.67;;;;;;;3.93;71.96;97341.34;5076805;28;20702;-66
2022/04/17 02:56:23;;;;;;;10.93;5.10;;;;;;;3.89;72.87;97339.91;5078430;28;20202;-66
2022/04/17 02:58:50;;;;;;;10.27;4.70;;;;;;;3.94;72.77;97350.03;5077264;28;20226;-65
2022/04/17 03:06:46;;;;;;;7.97;4.00;;;;;;;4.15;70.85;97333.66;5077759;28;20231;-66
2022/04/17 03:09:13;;;;;;;13.23;4.37;;;;;;;4.08;71.22;97336.84;5077298;28;20204;-65
2022/04/17 03:11:39;;;;;;;8.63;4.50;;;;;;;3.88;72.46;97334.81;5077193;28;20203;-66
2022/04/17 03:14:06;;;;;;;10.70;5.17;;;;;;;3.92;72.66;97336.25;5076827;28;20207;-65
2022/04/17 03:16:34;;;;;;;12.73;5.00;;;;;;;4.03;72.02;97339.75;5077359;28;20203;-66
2022/04/17 03:19:00;;;;;;;9.20;4.70;;;;;;;3.75;72.47;97340.06;5076703;28;20226;-65
2022/04/17 03:21:27;;;;;;;9.23;4.33;;;;;;;3.79;72.41;97341.53;5077155;28;20203;-66
2022/04/17 03:23:54;;;;;;;8.90;4.70;;;;;;;3.78;72.22;97332.03;5076404;28;21083;-65
2022/04/17 03:26:20;;;;;;;9.87;5.07;;;;;;;3.78;72.80;97324.22;5077367;28;20211;-66
2022/04/17 03:28:47;;;;;;;14.10;5.10;;;;;;;3.88;71.95;97322.63;5076839;28;20219;-65
2022/04/17 03:31:14;;;;;;;8.93;4.40;;;;;;;3.96;70.81;97324.66;5077190;28;20204;-66
2022/04/17 03:33:42;;;;;;;7.57;3.67;;;;;;;3.98;71.48;97323.59;5076285;28;20574;-65
2022/04/17 03:36:08;;;;;;;9.70;4.87;;;;;;;3.83;72.81;97327.34;5077183;28;20204;-66
2022/04/17 03:38:35;;;;;;;8.93;4.37;;;;;;;3.75;73.18;97319.22;5076746;28;20216;-66
2022/04/17 03:41:01;;;;;;;7.40;4.17;;;;;;;3.71;73.75;97307.34;5076643;28;20203;-65
2022/04/17 03:43:28;;;;;;;12.00;4.97;;;;;;;3.83;73.60;97306.50;5075958;28;20222;-64
2022/04/17 03:45:54;;;;;;;8.50;4.33;;;;;;;3.90;71.86;97310.31;5076946;28;20207;-66
2022/04/17 03:48:21;;;;;;;7.90;4.43;;;;;;;3.79;71.79;97314.63;5076305;28;20224;-66
2022/04/17 03:50:49;;;;;;;6.23;3.83;;;;;;;3.92;72.23;97305.81;5076407;28;20203;-66
2022/04/17 03:53:16;;;;;;;7.37;4.10;;;;;;;3.79;72.59;97305.03;5076482;28;20256;-66
2022/04/17 03:55:42;;;;;;;9.33;4.73;;;;;;;3.84;72.63;97304.69;5076548;28;20210;-66
2022/04/17 03:58:09;;;;;;;6.30;3.93;;;;;;;3.51;71.84;97303.66;5076553;28;20585;-66
2022/04/17 04:00:35;;;;;;;6.87;3.40;;;;;;;3.73;70.62;97299.44;5076201;28;20740;-66
2022/04/17 04:03:02;;;;;;;8.53;4.70;;;;;;;3.68;71.25;97302.38;5075658;28;20199;-65
2022/04/17 04:05:28;;;;;;;8.27;4.17;;;;;;;3.55;72.60;97305.13;5075838;28;20203;-67
2022/04/17 04:07:56;;;;;;;10.87;4.63;;;;;;;3.74;72.79;97309.75;5076968;28;20233;-66
2022/04/17 04:10:23;;;;;;;12.03;4.40;;;;;;;3.56;73.79;97302.41;5076528;28;20200;-66
2022/04/17 04:12:50;;;;;;;9.73;5.27;;;;;;;3.57;73.51;97308.47;5075592;28;20252;-66
2022/04/17 04:15:16;;;;;;;8.00;4.93;;;;;;;3.55;73.97;97315.53;5076768;28;20316;-66
2022/04/17 04:17:42;;;;;;;14.43;4.60;;;;;;;3.64;73.15;97313.94;5076951;28;20217;-65
2022/04/17 04:20:10;;;;;;;13.50;5.77;;;;;;;3.57;72.98;97311.88;5076123;28;20205;-64
2022/04/17 04:22:36;;;;;;;10.60;5.10;;;;;;;3.32;74.53;97309.34;5075441;28;20204;-65
2022/04/17 04:25:07;;;;;;;14.90;5.87;;;;;;;3.62;74.13;97303.75;5076377;28;20216;-65
2022/04/17 04:30:18;;;;;;;8.03;4.40;;;;;;;3.31;74.71;97306.84;5075661;28;20774;-66
2022/04/17 04:32:53;;;;;;;9.00;5.00;;;;;;;3.67;74.35;97312.91;5075770;28;20203;-66
2022/04/17 04:35:20;;;;;;;8.97;4.63;;;;;;;3.42;74.62;97315.56;5076133;28;20202;-66
2022/04/17 04:37:46;;;;;;;11.53;5.40;;;;;;;3.41;74.49;97319.13;5076173;28;20234;-66
2022/04/17 04:40:14;;;;;;;7.43;4.40;;;;;;;3.68;73.86;97315.38;5076899;28;20203;-66
2022/04/17 04:42:41;;;;;;;7.70;4.67;;;;;;;3.47;74.30;97313.47;5075876;28;20210;-64
2022/04/17 04:48:04;;;;;;;9.83;4.73;;;;;;;3.55;73.73;97313.75;5013847;28;20225;-65
2022/04/17 04:50:30;;;;;;;19.33;4.60;;;;;;;3.58;74.16;97304.88;5060641;28;20207;-65
2022/04/17 04:52:57;;;;;;;11.73;4.80;;;;;;;3.64;73.53;97313.94;5075256;28;20207;-66
2022/04/17 04:55:25;;;;;;;8.00;4.27;;;;;;;3.79;72.95;97309.41;5076284;28;20239;-66
2022/04/17 04:57:52;;;;;;;7.73;4.20;;;;;;;3.65;73.13;97318.22;5076102;28;20222;-66
2022/04/17 05:00:18;;;;;;;10.40;4.47;;;;;;;3.65;74.30;97317.38;5075687;28;20212;-65
2022/04/17 05:02:45;;;;;;;7.00;4.00;;;;;;;3.73;73.96;97313.28;5075506;28;20203;-65
2022/04/17 05:05:11;;;;;;;7.20;3.70;;;;;;;3.67;74.46;97316.31;5076111;28;21122;-64
2022/04/17 05:07:39;;;;;;;7.00;3.87;;;;;;;3.89;74.13;97310.41;5075904;28;20235;-64
2022/04/17 05:10:06;;;;;;;6.13;3.63;;;;;;;3.56;75.39;97317.22;5075864;28;20199;-65
2022/04/17 05:12:36;;;;;;;9.47;4.20;;;;;;;4.07;74.68;97309.91;5076607;28;20575;-66
2022/04/17 05:15:03;;;;;;;8.67;4.00;;;;;;;4.15;74.09;97307.59;5080005;28;20341;-65
2022/04/17 05:17:30;;;;;;;9.87;4.33;;;;;;;4.12;73.77;97297.34;5079387;28;20223;-66
2022/04/17 05:19:56;;;;;;;8.00;4.03;;;;;;;4.27;72.68;97296.25;5079533;28;20680;-64
2022/04/17 05:22:31;;;;;;;12.47;4.27;;;;;;;4.26;73.04;97305.00;5078988;28;20207;-65
2022/04/17 05:24:58;;;;;;;6.33;3.97;;;;;;;4.26;72.74;97305.00;5079641;28;20203;-63
2022/04/17 05:27:24;;;;;;;8.50;4.07;;;;;;;4.40;72.96;97303.06;5079272;28;20234;-66
2022/04/17 05:29:52;;;;;;;8.73;4.10;;;;;;;4.84;73.21;97298.75;5079279;28;20203;-65
2022/04/17 05:32:19;;;;;;;7.40;3.50;;;;;;;4.71;72.56;97301.56;5078924;28;20226;-65
2022/04/17 05:34:45;;;;;;;6.17;3.60;;;;;;;4.82;72.44;97299.00;5079369;28;20200;-66
2022/04/17 05:37:12;;;;;;;8.63;4.20;;;;;;;5.01;72.16;97306.13;5079039;28;20226;-65
2022/04/17 05:39:38;;;;;;;10.83;4.77;;;;;;;5.14;71.96;97306.88;5078885;28;20672;-64
2022/04/17 05:42:05;;;;;;;6.87;3.87;;;;;;;5.39;71.27;97317.06;5079119;28;20200;-64
2022/04/17 05:44:32;;;;;;;6.70;3.67;;;;;;;5.30;72.60;97317.78;5077268;28;20798;-65
2022/04/17 05:47:00;;;;;;;10.70;4.40;;;;;;;5.57;71.43;97310.41;5078920;28;20564;-67
2022/04/17 05:49:27;;;;;;;6.03;3.87;;;;;;;5.48;72.18;97300.66;5078937;28;20223;-63
2022/04/17 05:51:56;;;;;;;7.13;3.90;;;;;;;5.47;72.23;97310.28;5077771;28;20200;-65
2022/04/17 05:54:23;;;;;;;8.63;4.43;;;;;;;5.43;71.90;97315.88;5078285;28;20206;-66
2022/04/17 05:56:50;;;;;;;6.43;3.80;;;;;;;5.42;72.73;97303.75;5078751;28;20208;-66
2022/04/17 05:59:16;;;;;;;6.30;3.77;;;;;;;5.56;72.88;97308.72;5079824;28;20196;-66
2022/04/17 06:01:43;;;;;;;8.83;4.23;;;;;;;5.28;73.23;97314.44;5078685;28;20196;-64
2022/04/17 06:04:10;;;;;;;5.77;3.23;;;;;;;5.60;72.97;97310.13;5078901;28;20204;-64
2022/04/17 06:06:37;;;;;;;7.10;3.43;;;;;;;5.43;71.96;97312.44;5080429;28;20204;-64
2022/04/17 06:09:04;;;;;;;6.37;3.60;;;;;;;5.64;72.71;97308.97;5078566;28;20228;-65
2022/04/17 06:11:30;;;;;;;6.30;3.80;;;;;;;5.85;71.22;97309.91;5079143;28;20273;-65
2022/04/17 06:13:57;;;;;;;13.53;3.97;;;;;;;5.85;71.14;97307.28;5078028;28;20234;-66
2022/04/17 06:16:23;;;;;;;8.83;4.10;;;;;;;6.13;70.93;97294.47;5078036;28;20204;-66
2022/04/17 06:18:50;;;;;;;5.53;3.43;;;;;;;6.26;68.93;97297.75;5078470;28;20285;-65
2022/04/17 06:21:18;;;;;;;7.93;3.37;;;;;;;6.42;69.27;97293.75;5077890;28;20204;-65
2022/04/17 06:23:45;;;;;;;4.63;2.77;;;;;;;6.05;68.29;97296.88;5077612;28;20224;-66
2022/04/17 06:26:11;;;;;;;5.17;3.03;;;;;;;6.06;67.99;97304.59;5078139;28;20566;-66
2022/04/17 06:28:38;;;;;;;5.80;2.97;;;;;;;6.09;68.68;97301.72;5077700;28;20228;-66
2022/04/17 06:31:07;;;;;;;6.23;2.97;;;;;;;6.21;68.17;97298.13;5077777;28;20605;-66
2022/04/17 06:33:33;;;;;;;6.10;3.43;;;;;;;6.52;67.34;97296.44;5077255;28;20192;-65
2022/04/17 06:36:00;;;;;;;4.90;2.87;;;;;;;6.56;66.98;97298.69;5078301;28;20215;-66
2022/04/17 06:38:28;;;;;;;4.30;2.77;;;;;;;6.78;66.02;97298.56;5077911;28;20215;-66
2022/04/17 06:40:54;;;;;;;6.77;3.07;;;;;;;6.66;66.21;97307.44;5077795;28;20200;-66
2022/04/17 06:43:21;;;;;;;4.33;2.53;;;;;;;6.74;66.09;97310.25;5076611;28;20215;-65
2022/04/17 06:45:47;;;;;;;8.87;3.20;;;;;;;6.92;67.27;97303.47;5077648;28;20234;-64
2022/04/17 06:48:16;;;;;;;7.17;3.53;;;;;;;7.38;65.71;97305.50;5077349;28;20230;-66
2022/04/17 06:50:43;;;;;;;4.83;2.97;;;;;;;7.49;65.13;97308.03;5077273;28;20648;-65
2022/04/17 06:53:09;;;;;;;6.03;2.93;;;;;;;7.48;63.91;97302.91;5076984;28;20204;-64
2022/04/17 06:55:38;;;;;;;5.23;3.27;;;;;;;7.61;61.35;97299.09;5077441;28;20585;-66
2022/04/17 06:58:07;;;;;;;6.27;3.03;;;;;;;7.50;64.23;97296.56;5077258;28;20212;-66
2022/04/17 07:00:34;;;;;;;8.47;3.13;;;;;;;7.55;62.94;97290.94;5077018;28;20207;-65
2022/04/17 07:03:00;;;;;;;5.30;2.93;;;;;;;7.81;63.56;97285.06;5076778;28;20212;-65
2022/04/17 07:05:27;;;;;;;5.77;2.40;;;;;;;7.68;61.66;97281.03;5077455;28;20200;-64
2022/04/17 07:07:58;;;;;;;4.27;3.13;;;;;;;8.12;61.58;97274.34;5077002;28;20227;-65
2022/04/17 07:10:25;;;;;;;5.97;2.63;;;;;;;7.92;62.08;97275.28;5077061;28;20223;-65
2022/04/17 07:12:53;;;;;;;5.87;3.00;;;;;;;8.48;63.76;97278.09;5076069;28;20195;-65
2022/04/17 07:15:21;;;;;;;4.67;2.90;;;;;;;8.55;62.60;97285.28;5077264;28;20195;-65
2022/04/17 07:17:47;;;;;;;5.77;2.70;;;;;;;8.38;62.40;97282.53;5076648;28;20771;-66
2022/04/17 07:20:15;;;;;;;5.37;2.47;;;;;;;8.66;60.80;97288.59;5077512;28;20960;-64
2022/04/17 07:22:43;;;;;;;4.57;2.80;;;;;;;8.70;57.63;97281.28;5076643;28;20226;-65
2022/04/17 07:25:11;;;;;;;4.80;2.77;;;;;;;8.96;61.04;97280.53;5076694;28;20210;-66
2022/04/17 07:27:39;;;;;;;6.17;3.00;;;;;;;9.02;59.86;97273.88;5077075;28;20321;-64
2022/04/17 07:30:12;;;;;;;5.60;2.50;;;;;;;9.07;57.01;97277.72;5076787;28;20347;-66
2022/04/17 07:32:39;;;;;;;4.73;2.23;;;;;;;8.76;57.92;97278.91;5076141;28;20200;-66
2022/04/17 07:35:06;;;;;;;4.83;2.63;;;;;;;8.98;57.34;97277.75;5076485;28;20602;-66
2022/04/17 07:37:35;;;;;;;4.00;2.30;;;;;;;8.83;57.19;97279.97;5078053;28;20604;-65
2022/04/17 07:40:01;;;;;;;4.10;2.40;;;;;;;8.91;56.47;97277.50;5076537;28;20200;-66
2022/04/17 07:42:28;;;;;;;7.17;2.97;;;;;;;9.09;57.06;97281.06;5075808;28;20200;-64
2022/04/17 07:44:54;;;;;;;9.03;2.90;;;;;;;9.14;56.15;97273.56;5077096;28;20199;-65
2022/04/17 07:47:22;;;;;;;4.80;2.43;;;;;;;9.36;56.11;97274.03;5076997;28;20856;-64
2022/04/17 07:49:49;;;;;;;4.07;2.63;;;;;;;9.29;56.18;97272.09;5076443;28;20220;-65
2022/04/17 07:52:15;;;;;;;8.23;2.50;;;;;;;9.12;55.39;97272.88;5076208;28;20200;-64
2022/04/17 07:54:42;;;;;;;6.27;2.67;;;;;;;9.52;55.85;97263.72;5076621;28;20200;-64
2022/04/17 07:57:13;;;;;;;7.23;2.87;;;;;;;9.65;57.91;97261.56;5076730;28;20222;-65
2022/04/17 07:59:40;;;;;;;4.10;2.50;;;;;;;9.84;55.59;97259.66;5076543;28;20195;-66
2022/04/17 08:02:22;;;;;;;4.50;2.20;;;;;;;10.09;54.04;97253.69;5075953;28;20231;-64
2022/04/17 08:04:50;;;;;;;7.33;4.63;;;;;;;10.20;53.04;97256.13;5076432;28;20202;-65
2022/04/17 08:07:16;;;;;;;3.80;2.47;;;;;;;9.86;52.69;97247.19;5076794;28;20235;-67
2022/04/17 08:09:43;;;;;;;5.27;2.90;;;;;;;10.04;53.35;97253.34;5076303;28;20231;-67
2022/04/17 08:12:09;;;;;;;3.97;2.40;;;;;;;10.22;53.70;97248.91;5076016;28;20203;-66
2022/04/17 08:14:36;;;;;;;3.97;2.30;;;;;;;10.42;51.61;97253.03;5076407;28;20709;-67
2022/04/17 08:17:03;;;;;;;3.77;2.33;;;;;;;10.68;52.39;97246.81;5076340;28;20196;-66
2022/04/17 08:19:32;;;;;;;3.40;2.43;;;;;;;10.60;50.00;97252.03;5076406;28;20665;-65
2022/04/17 08:22:00;;;;;;;9.00;2.70;;;;;;;10.55;50.76;97246.41;5076216;28;20286;-66
2022/04/17 08:24:26;;;;;;;4.50;2.40;;;;;;;10.44;51.91;97249.25;5075652;28;20200;-64
2022/04/17 08:26:53;;;;;;;3.43;2.53;;;;;;;10.79;50.38;97251.03;5076657;28;20238;-66
2022/04/17 08:29:19;;;;;;;3.00;2.20;;;;;;;10.76;50.57;97248.69;5076420;28;20216;-65
2022/04/17 08:31:46;;;;;;;4.20;2.60;;;;;;;11.07;52.18;97240.16;5077491;28;20244;-67
2022/04/17 08:34:12;;;;;;;2.87;2.00;;;;;;;10.87;51.43;97245.81;5076076;28;20204;-65
2022/04/17 08:36:39;;;;;;;3.57;2.20;;;;;;;11.01;52.48;97236.34;5077676;28;20909;-65
2022/04/17 08:39:07;;;;;;;4.00;2.30;;;;;;;11.34;50.46;97247.91;5076960;28;20231;-66
2022/04/17 08:41:34;;;;;;;4.47;2.50;;;;;;;11.42;50.36;97232.94;5077260;28;20207;-65
2022/04/17 08:44:03;;;;;;;3.70;2.50;;;;;;;10.93;46.88;97240.72;5070925;28;20261;-67
2022/04/17 08:46:30;;;;;;;3.77;2.27;;;;;;;11.44;49.60;97232.78;5076169;28;20573;-67
2022/04/17 08:48:58;;;;;;;3.50;2.00;;;;;;;11.08;49.38;97233.91;5079521;28;21186;-65
2022/04/17 08:51:27;;;;;;;3.10;2.10;;;;;;;11.09;47.12;97231.13;5079656;28;20245;-67
2022/04/17 08:53:57;;;;;;;3.37;1.90;;;;;;;11.27;48.74;97231.06;5078412;28;20578;-66
2022/04/17 08:56:26;;;;;;;3.87;2.33;;;;;;;11.28;49.75;97222.16;5079934;28;20207;-66
2022/04/17 08:58:52;;;;;;;3.87;2.10;;;;;;;11.07;47.94;97214.63;5078607;28;20224;-66
2022/04/17 09:01:19;;;;;;;7.20;2.50;;;;;;;11.46;47.17;97215.81;5078419;28;20303;-66
2022/04/17 09:03:48;;;;;;;5.70;2.30;;;;;;;11.54;49.23;97210.59;5076396;28;20269;-66
2022/04/17 09:06:18;;;;;;;3.30;1.90;;;;;;;11.77;46.17;97204.56;5076560;28;20619;-66
2022/04/17 09:08:57;;;;;;;3.73;2.20;;;;;;;11.78;45.11;97200.09;5076490;28;20302;-66
2022/04/17 09:11:27;;;;;;;2.97;1.80;;;;;;;12.08;45.54;97192.41;5076241;28;20235;-66
2022/04/17 09:13:58;;;;;;;4.43;2.07;;;;;;;11.83;46.94;97182.78;5076994;28;20195;-66
2022/04/17 09:16:27;;;;;;;4.50;2.63;;;;;;;12.04;44.57;97182.31;5077846;28;20207;-66
2022/04/17 09:18:53;;;;;;;4.53;2.30;;;;;;;12.00;45.52;97178.38;5078356;28;20220;-66
2022/04/17 09:21:29;;;;;;;2.87;1.80;;;;;;;12.72;44.31;97169.44;5077801;28;20711;-66
2022/04/17 09:24:13;;;;;;;2.57;1.80;;;;;;;12.46;43.68;97168.81;5078121;28;20199;-66
2022/04/17 09:26:47;;;;;;;3.53;1.93;;;;;;;12.70;42.40;97155.56;5078688;28;20229;-66
2022/04/17 09:29:18;;;;;;;6.37;2.33;;;;;;;12.68;44.76;97146.97;5077828;28;20754;-67
2022/04/17 09:31:45;;;;;;;3.80;2.30;;;;;;;12.33;45.04;97157.91;5078240;28;21222;-66
2022/04/17 09:34:11;;;;;;;3.80;2.00;;;;;;;12.34;46.24;97148.97;5078122;28;20200;-67
2022/04/17 09:36:38;;;;;;;5.77;2.20;;;;;;;12.47;45.44;97138.72;5078232;28;20196;-66
2022/04/17 09:39:13;;;;;;;3.20;2.30;;;;;;;12.79;47.00;97128.09;5078006;28;20756;-66
2022/04/17 09:41:54;;;;;;;5.03;2.43;;;;;;;13.13;43.37;97131.34;5078318;28;20207;-67
2022/04/17 09:44:46;;;;;;;3.70;2.00;;;;;;;13.01;44.17;97125.59;5077857;28;20679;-66
2022/04/17 09:47:16;;;;;;;4.17;2.23;;;;;;;13.07;45.88;97127.56;5077503;28;20230;-67
2022/04/17 09:49:54;;;;;;;4.23;2.37;;;;;;;13.38;42.02;97129.25;5076265;28;20219;-65
2022/04/17 09:52:21;;;;;;;3.70;2.00;;;;;;;13.14;43.68;97127.72;5077541;28;20293;-65
2022/04/17 09:54:50;;;;;;;2.77;1.93;;;;;;;13.34;40.99;97128.94;5079216;28;20204;-67
2022/04/17 09:57:27;;;;;;;5.63;2.10;;;;;;;13.52;40.73;97117.91;5077636;28;20228;-67
2022/04/17 09:59:54;;;;;;;2.87;1.90;;;;;;;13.37;42.69;97116.19;5078139;28;20654;-66
2022/04/17 10:02:21;;;;;;;2.83;1.90;;;;;;;13.29;39.99;97123.31;5077730;28;20288;-66
2022/04/17 10:04:48;;;;;;;2.30;1.60;;;;;;;13.53;37.70;97116.94;5079102;28;20204;-66
2022/04/17 10:07:17;;;;;;;2.60;1.52;;;;;;;13.62;38.84;97123.84;5078989;28;20928;-65
2022/04/17 10:09:46;;;;;;;3.40;1.67;;;;;;;14.00;40.75;97112.31;5077489;28;20250;-67
2022/04/17 10:12:14;;;;;;;2.90;1.90;;;;;;;13.73;41.36;97112.81;5076886;28;20668;-67
2022/04/17 10:14:43;;;;;;;3.50;2.00;;;;;;;13.95;40.59;97104.09;5077778;28;20195;-66
2022/04/17 10:17:09;;;;;;;4.13;1.80;;;;;;;13.97;40.19;97106.56;5077426;28;20297;-66
2022/04/17 10:19:36;;;;;;;3.10;1.93;;;;;;;14.18;40.72;97099.63;5078161;28;20672;-67
2022/04/17 10:22:04;;;;;;;4.18;2.25;;;;;;;13.71;41.29;97090.16;5076318;28;20207;-67
2022/04/17 10:24:32;;;;;;;2.85;1.77;;;;;;;13.45;40.99;97095.81;5076823;28;20208;-66
2022/04/17 10:27:00;;;;;;;2.67;2.05;;;;;;;13.72;41.00;97089.16;5074166;28;20727;-65
2022/04/17 10:29:31;;;;;;;2.20;1.73;;;;;;;14.05;40.88;97078.16;5077099;28;20226;-67
2022/04/17 10:32:22;;;;;;;3.50;1.70;;;;;;;14.32;39.32;97085.56;5077720;28;20200;-65
2022/04/17 10:35:09;;;;;;;3.13;2.05;;;;;;;14.68;40.70;97074.94;5076801;28;20204;-65
2022/04/17 10:38:11;;;;;;;2.47;1.50;;;;;;;14.58;39.94;97075.41;5076624;28;20234;-68
2022/04/17 10:40:38;;;;;;;2.38;1.83;;;;;;;14.40;42.54;97074.91;5074740;28;20203;-65
2022/04/17 10:43:06;;;;;;;4.72;1.75;;;;;;;14.62;41.27;97072.19;5076157;28;20199;-65
2022/04/17 10:45:33;;;;;;;3.67;1.88;;;;;;;14.58;40.55;97067.44;5077223;28;20203;-66
2022/04/17 10:48:09;;;;;;;2.20;1.65;;;;;;;14.58;40.03;97070.09;5076599;28;20251;-67
2022/04/17 10:50:42;;;;;;;4.22;2.10;;;;;;;14.58;39.93;97065.59;5077378;28;20633;-67
2022/04/17 10:53:25;;;;;;;3.25;1.88;;;;;;;15.03;36.83;97055.66;5076005;28;20668;-66
2022/04/17 10:56:02;;;;;;;2.15;1.40;;;;;;;15.37;37.38;97053.22;5076816;28;20204;-67
2022/04/17 10:58:35;;;;;;;3.13;1.83;;;;;;;14.84;38.72;97060.66;5076122;28;20223;-66
2022/04/17 11:01:01;;;;;;;2.30;1.75;;;;;;;14.83;42.36;97054.53;5076700;28;20210;-66
2022/04/17 11:03:29;;;;;;;2.88;1.70;;;;;;;14.26;40.65;97054.50;5076419;28;20204;-67
2022/04/17 11:06:09;;;;;;;2.80;1.80;;;;;;;14.10;38.35;97049.31;5071986;28;20224;-65
2022/04/17 11:08:48;;;;;;;3.63;2.10;;;;;;;15.43;39.77;97047.19;5074856;28;20220;-67
2022/04/17 11:11:15;;;;;;;2.45;1.80;;;;;;;15.05;38.49;97043.00;5075191;28;20227;-66
2022/04/17 11:14:14;;;;;;;3.17;1.60;;;;;;;15.18;38.51;97042.34;5075900;28;20578;-67
2022/04/17 11:16:47;;;;;;;2.08;1.25;;;;;;;15.46;37.00;97038.81;5074523;28;20204;-65
2022/04/17 11:19:17;;;;;;;2.70;1.63;;;;;;;15.17;37.85;97040.69;5075842;28;20216;-67
2022/04/17 11:21:45;;;;;;;4.57;1.60;;;;;;;15.42;37.00;97041.03;5076071;28;20210;-68
2022/04/17 11:24:12;;;;;;;2.80;1.70;;;;;;;15.49;37.91;97036.63;5075053;28;20206;-67
2022/04/17 11:27:10;;;;;;;2.38;1.50;;;;;;;15.70;37.85;97033.97;5076324;28;20203;-68
2022/04/17 11:29:43;;;;;;;3.33;1.50;;;;;;;15.41;37.19;97023.47;5076226;28;20598;-66
2022/04/17 11:32:46;;;;;;;4.57;1.60;;;;;;;15.60;39.07;97024.69;5075847;28;20252;-67
2022/04/17 11:35:15;;;;;;;5.18;1.75;;;;;;;15.00;39.94;97029.44;5071967;28;20206;-67
2022/04/17 11:37:54;;;;;;;3.97;1.55;;;;;;;15.53;38.94;97026.41;5076085;28;20299;-67
2022/04/17 11:40:23;;;;;;;2.72;1.80;;;;;;;15.37;38.19;97026.66;5074902;28;20214;-67
2022/04/17 11:42:52;;;;;;;3.83;1.55;;;;;;;15.67;38.21;97014.94;5075496;28;20340;-68
2022/04/17 11:45:20;;;;;;;2.88;2.00;;;;;;;15.31;37.46;97011.47;5075661;28;20207;-68
2022/04/17 11:47:48;;;;;;;2.90;1.70;;;;;;;15.57;41.96;97017.09;5074128;28;20224;-67
2022/04/17 11:50:23;;;;;;;4.90;2.00;;;;;;;15.40;39.82;97013.00;5072334;28;20631;-68
2022/04/17 11:52:50;;;;;;;2.85;1.40;;;;;;;15.63;39.08;97008.34;5071296;28;20209;-67
2022/04/17 11:55:17;;;;;;;2.03;1.48;;;;;;;15.81;38.42;97003.41;5074551;28;20231;-66
2022/04/17 11:57:43;;;;;;;4.43;1.60;;;;;;;15.32;40.08;97005.16;5075129;28;20223;-66
2022/04/17 12:00:13;;;;;;;3.40;1.80;;;;;;;15.87;38.54;97003.47;5073593;28;20204;-67